sensor_id;sensor_type;location;lat;lon;timestamp;temperature;humidity
13409;DHT22;6775;49.574;11.170;2023-04-25T00:02:09;8.90;99.90
13409;DHT22;6775;49.574;11.170;2023-04-25T00:04:37;8.90;99.90
13409;DHT22;6775;49.574;11.170;2023-04-25T00:07:06;9.00;99.90
13409;DHT22;6775;49.574;11.170;2023-04-25T00:09:33;8.90;99.90
13409;DHT22;6775;49.574;11.170;2023-04-25T00:12:01;8.90;99.90
13409;DHT22;6775;49.574;11.170;2023-04-25T00:14:30;8.90;99.90
13409;DHT22;6775;49.574;11.170;2023-04-25T00:17:00;9.00;99.90
13409;DHT22;6775;49.574;11.170;2023-04-25T00:19:29;9.00;99.90
13409;DHT22;6775;49.574;11.170;2023-04-25T00:21:56;9.00;99.90
13409;DHT22;6775;49.574;11.170;2023-04-25T00:24:24;9.00;99.90
13409;DHT22;6775;49.574;11.170;2023-04-25T00:26:52;9.10;99.90
13409;DHT22;6775;49.574;11.170;2023-04-25T00:29:20;9.20;99.90
13409;DHT22;6775;49.574;11.170;2023-04-25T00:31:49;9.20;99.90
13409;DHT22;6775;49.574;11.170;2023-04-25T00:34:17;9.10;99.90
13409;DHT22;6775;49.574;11.170;2023-04-25T00:36:45;8.90;99.90
13409;DHT22;6775;49.574;11.170;2023-04-25T00:39:13;8.80;99.90
13409;DHT22;6775;49.574;11.170;2023-04-25T00:41:41;8.70;99.90
13409;DHT22;6775;49.574;11.170;2023-04-25T00:44:09;8.70;99.90
13409;DHT22;6775;49.574;11.170;2023-04-25T00:46:38;8.60;99.90
13409;DHT22;6775;49.574;11.170;2023-04-25T00:49:08;8.60;99.90
13409;DHT22;6775;49.574;11.170;2023-04-25T00:51:42;8.50;99.90
13409;DHT22;6775;49.574;11.170;2023-04-25T00:54:10;8.50;99.90
13409;DHT22;6775;49.574;11.170;2023-04-25T00:56:39;8.40;99.90
13409;DHT22;6775;49.574;11.170;2023-04-25T00:59:09;8.40;99.90
13409;DHT22;6775;49.574;11.170;2023-04-25T01:01:38;8.40;99.90
13409;DHT22;6775;49.574;11.170;2023-04-25T01:04:08;8.40;99.90
13409;DHT22;6775;49.574;11.170;2023-04-25T01:06:36;8.40;99.90
13409;DHT22;6775;49.574;11.170;2023-04-25T01:09:04;8.50;99.90
13409;DHT22;6775;49.574;11.170;2023-04-25T01:11:32;8.50;99.90
13409;DHT22;6775;49.574;11.170;2023-04-25T01:14:01;8.60;99.90
13409;DHT22;6775;49.574;11.170;2023-04-25T01:16:29;8.60;99.90
13409;DHT22;6775;49.574;11.170;2023-04-25T01:18:57;8.70;99.90
13409;DHT22;6775;49.574;11.170;2023-04-25T01:21:27;8.70;99.90
13409;DHT22;6775;49.574;11.170;2023-04-25T01:23:56;8.70;99.90
13409;DHT22;6775;49.574;11.170;2023-04-25T01:26:24;8.80;99.90
13409;DHT22;6775;49.574;11.170;2023-04-25T01:28:53;8.80;99.90
13409;DHT22;6775;49.574;11.170;2023-04-25T01:31:21;8.90;99.90
13409;DHT22;6775;49.574;11.170;2023-04-25T01:33:49;8.90;99.90
13409;DHT22;6775;49.574;11.170;2023-04-25T01:36:18;8.90;99.90
13409;DHT22;6775;49.574;11.170;2023-04-25T01:38:47;9.00;99.90
13409;DHT22;6775;49.574;11.170;2023-04-25T01:41:15;8.90;99.90
13409;DHT22;6775;49.574;11.170;2023-04-25T01:43:44;8.90;99.90
13409;DHT22;6775;49.574;11.170;2023-04-25T01:46:12;8.90;99.90
13409;DHT22;6775;49.574;11.170;2023-04-25T01:48:40;8.90;99.90
13409;DHT22;6775;49.574;11.170;2023-04-25T01:51:08;9.10;99.90
13409;DHT22;6775;49.574;11.170;2023-04-25T01:53:38;9.00;99.90
13409;DHT22;6775;49.574;11.170;2023-04-25T01:56:07;8.90;99.90
13409;DHT22;6775;49.574;11.170;2023-04-25T01:58:35;9.00;99.90
13409;DHT22;6775;49.574;11.170;2023-04-25T02:01:03;8.90;99.90
13409;DHT22;6775;49.574;11.170;2023-04-25T02:03:31;8.90;99.90
13409;DHT22;6775;49.574;11.170;2023-04-25T02:06:00;8.90;99.90
13409;DHT22;6775;49.574;11.170;2023-04-25T02:08:27;8.90;99.90
13409;DHT22;6775;49.574;11.170;2023-04-25T02:10:56;8.90;99.90
13409;DHT22;6775;49.574;11.170;2023-04-25T02:13:25;8.90;99.90
13409;DHT22;6775;49.574;11.170;2023-04-25T02:15:53;9.00;99.90
13409;DHT22;6775;49.574;11.170;2023-04-25T02:18:21;8.90;99.90
13409;DHT22;6775;49.574;11.170;2023-04-25T02:20:49;9.00;99.90
13409;DHT22;6775;49.574;11.170;2023-04-25T02:23:17;9.00;99.90
13409;DHT22;6775;49.574;11.170;2023-04-25T02:25:45;9.00;99.90
13409;DHT22;6775;49.574;11.170;2023-04-25T02:28:13;9.00;99.90
13409;DHT22;6775;49.574;11.170;2023-04-25T02:30:42;9.00;99.90
13409;DHT22;6775;49.574;11.170;2023-04-25T02:33:10;9.00;99.90
13409;DHT22;6775;49.574;11.170;2023-04-25T02:35:38;9.00;99.90
13409;DHT22;6775;49.574;11.170;2023-04-25T02:38:05;9.00;99.90
13409;DHT22;6775;49.574;11.170;2023-04-25T02:40:33;9.00;99.90
13409;DHT22;6775;49.574;11.170;2023-04-25T02:43:01;8.90;99.90
13409;DHT22;6775;49.574;11.170;2023-04-25T02:45:29;8.90;99.90
13409;DHT22;6775;49.574;11.170;2023-04-25T02:47:58;8.80;99.90
13409;DHT22;6775;49.574;11.170;2023-04-25T02:50:26;8.80;99.90
13409;DHT22;6775;49.574;11.170;2023-04-25T02:52:54;8.80;99.90
13409;DHT22;6775;49.574;11.170;2023-04-25T02:55:21;8.70;99.90
13409;DHT22;6775;49.574;11.170;2023-04-25T02:57:53;8.70;99.90
13409;DHT22;6775;49.574;11.170;2023-04-25T03:00:22;8.70;99.90
13409;DHT22;6775;49.574;11.170;2023-04-25T03:02:50;8.70;99.90
13409;DHT22;6775;49.574;11.170;2023-04-25T03:05:19;8.70;99.90
13409;DHT22;6775;49.574;11.170;2023-04-25T03:07:47;8.70;99.90
13409;DHT22;6775;49.574;11.170;2023-04-25T03:10:15;8.60;99.90
13409;DHT22;6775;49.574;11.170;2023-04-25T03:12:42;8.60;99.90
13409;DHT22;6775;49.574;11.170;2023-04-25T03:15:10;8.60;99.90
13409;DHT22;6775;49.574;11.170;2023-04-25T03:17:38;8.60;99.90
13409;DHT22;6775;49.574;11.170;2023-04-25T03:20:07;8.50;99.90
13409;DHT22;6775;49.574;11.170;2023-04-25T03:22:37;8.50;99.90
13409;DHT22;6775;49.574;11.170;2023-04-25T03:25:05;8.50;99.90
13409;DHT22;6775;49.574;11.170;2023-04-25T03:27:33;8.50;99.90
13409;DHT22;6775;49.574;11.170;2023-04-25T03:30:01;8.50;99.90
13409;DHT22;6775;49.574;11.170;2023-04-25T03:32:30;8.40;99.90
13409;DHT22;6775;49.574;11.170;2023-04-25T03:34:57;8.50;99.90
13409;DHT22;6775;49.574;11.170;2023-04-25T03:37:25;8.50;99.90
13409;DHT22;6775;49.574;11.170;2023-04-25T03:39:54;8.40;99.90
13409;DHT22;6775;49.574;11.170;2023-04-25T03:42:22;8.50;99.90
13409;DHT22;6775;49.574;11.170;2023-04-25T03:44:51;8.40;99.90
13409;DHT22;6775;49.574;11.170;2023-04-25T03:47:19;8.40;99.90
13409;DHT22;6775;49.574;11.170;2023-04-25T03:49:47;8.40;99.90
13409;DHT22;6775;49.574;11.170;2023-04-25T03:52:16;8.50;99.90
13409;DHT22;6775;49.574;11.170;2023-04-25T03:54:43;8.50;99.90
13409;DHT22;6775;49.574;11.170;2023-04-25T03:57:12;8.40;99.90
13409;DHT22;6775;49.574;11.170;2023-04-25T03:59:40;8.50;99.90
13409;DHT22;6775;49.574;11.170;2023-04-25T04:02:08;8.40;99.90
13409;DHT22;6775;49.574;11.170;2023-04-25T04:04:36;8.50;99.90
13409;DHT22;6775;49.574;11.170;2023-04-25T04:07:04;8.50;99.90
13409;DHT22;6775;49.574;11.170;2023-04-25T04:09:32;8.50;99.90
13409;DHT22;6775;49.574;11.170;2023-04-25T04:12:00;8.50;99.90
13409;DHT22;6775;49.574;11.170;2023-04-25T04:14:29;8.50;99.90
13409;DHT22;6775;49.574;11.170;2023-04-25T04:16:57;8.60;99.90
13409;DHT22;6775;49.574;11.170;2023-04-25T04:19:25;8.60;99.90
13409;DHT22;6775;49.574;11.170;2023-04-25T04:21:53;8.50;99.90
13409;DHT22;6775;49.574;11.170;2023-04-25T04:24:21;8.50;99.90
13409;DHT22;6775;49.574;11.170;2023-04-25T04:26:48;8.50;99.90
13409;DHT22;6775;49.574;11.170;2023-04-25T04:29:17;8.50;99.90
13409;DHT22;6775;49.574;11.170;2023-04-25T04:31:49;8.50;99.90
13409;DHT22;6775;49.574;11.170;2023-04-25T04:34:18;8.50;99.90
13409;DHT22;6775;49.574;11.170;2023-04-25T04:36:46;8.50;99.90
13409;DHT22;6775;49.574;11.170;2023-04-25T04:39:14;8.50;99.90
13409;DHT22;6775;49.574;11.170;2023-04-25T04:41:42;8.50;99.90
13409;DHT22;6775;49.574;11.170;2023-04-25T04:44:09;8.60;99.90
13409;DHT22;6775;49.574;11.170;2023-04-25T04:46:37;8.60;99.90
13409;DHT22;6775;49.574;11.170;2023-04-25T04:49:10;8.60;99.90
13409;DHT22;6775;49.574;11.170;2023-04-25T04:51:38;8.60;99.90
13409;DHT22;6775;49.574;11.170;2023-04-25T04:54:06;8.60;99.90
13409;DHT22;6775;49.574;11.170;2023-04-25T04:56:37;8.60;99.90
13409;DHT22;6775;49.574;11.170;2023-04-25T04:59:05;8.60;99.90
13409;DHT22;6775;49.574;11.170;2023-04-25T05:01:33;8.60;99.90
13409;DHT22;6775;49.574;11.170;2023-04-25T05:04:02;8.60;99.90
13409;DHT22;6775;49.574;11.170;2023-04-25T05:06:31;8.60;99.90
13409;DHT22;6775;49.574;11.170;2023-04-25T05:08:59;8.60;99.90
13409;DHT22;6775;49.574;11.170;2023-04-25T05:11:27;8.60;99.90
13409;DHT22;6775;49.574;11.170;2023-04-25T05:13:55;8.60;99.90
13409;DHT22;6775;49.574;11.170;2023-04-25T05:16:23;8.60;99.90
13409;DHT22;6775;49.574;11.170;2023-04-25T05:18:51;8.60;99.90
13409;DHT22;6775;49.574;11.170;2023-04-25T05:21:18;8.60;99.90
13409;DHT22;6775;49.574;11.170;2023-04-25T05:23:48;8.50;99.90
13409;DHT22;6775;49.574;11.170;2023-04-25T05:26:16;8.50;99.90
13409;DHT22;6775;49.574;11.170;2023-04-25T05:28:44;8.50;99.90
13409;DHT22;6775;49.574;11.170;2023-04-25T05:31:11;8.60;99.90
13409;DHT22;6775;49.574;11.170;2023-04-25T05:33:39;8.50;99.90
13409;DHT22;6775;49.574;11.170;2023-04-25T05:36:08;8.50;99.90
13409;DHT22;6775;49.574;11.170;2023-04-25T05:38:35;8.60;99.90
13409;DHT22;6775;49.574;11.170;2023-04-25T05:41:05;8.60;99.90
13409;DHT22;6775;49.574;11.170;2023-04-25T05:43:33;8.60;99.90
13409;DHT22;6775;49.574;11.170;2023-04-25T05:46:01;8.70;99.90
13409;DHT22;6775;49.574;11.170;2023-04-25T05:48:29;8.70;99.90
13409;DHT22;6775;49.574;11.170;2023-04-25T05:50:57;8.70;99.90
13409;DHT22;6775;49.574;11.170;2023-04-25T05:53:25;8.80;99.90
13409;DHT22;6775;49.574;11.170;2023-04-25T05:55:53;8.80;99.90
13409;DHT22;6775;49.574;11.170;2023-04-25T05:58:22;8.80;99.90
13409;DHT22;6775;49.574;11.170;2023-04-25T06:00:50;8.80;99.90
13409;DHT22;6775;49.574;11.170;2023-04-25T06:03:18;8.90;99.90
13409;DHT22;6775;49.574;11.170;2023-04-25T06:05:47;8.90;99.90
13409;DHT22;6775;49.574;11.170;2023-04-25T06:08:14;8.90;99.90
13409;DHT22;6775;49.574;11.170;2023-04-25T06:10:42;8.90;99.90
13409;DHT22;6775;49.574;11.170;2023-04-25T06:13:10;8.90;99.90
13409;DHT22;6775;49.574;11.170;2023-04-25T06:15:39;8.90;99.90
13409;DHT22;6775;49.574;11.170;2023-04-25T06:18:07;9.00;99.90
13409;DHT22;6775;49.574;11.170;2023-04-25T06:20:35;9.00;99.90
13409;DHT22;6775;49.574;11.170;2023-04-25T06:23:03;8.90;99.90
13409;DHT22;6775;49.574;11.170;2023-04-25T06:25:31;8.90;99.90
13409;DHT22;6775;49.574;11.170;2023-04-25T06:27:59;8.90;99.90
13409;DHT22;6775;49.574;11.170;2023-04-25T06:30:26;8.80;99.90
13409;DHT22;6775;49.574;11.170;2023-04-25T06:32:56;8.80;99.90
13409;DHT22;6775;49.574;11.170;2023-04-25T06:35:24;8.80;99.90
13409;DHT22;6775;49.574;11.170;2023-04-25T06:37:52;8.80;99.90
13409;DHT22;6775;49.574;11.170;2023-04-25T06:40:20;8.80;99.90
13409;DHT22;6775;49.574;11.170;2023-04-25T06:42:47;8.90;99.90
13409;DHT22;6775;49.574;11.170;2023-04-25T06:45:15;8.80;99.90
13409;DHT22;6775;49.574;11.170;2023-04-25T06:47:43;8.80;99.90
13409;DHT22;6775;49.574;11.170;2023-04-25T06:50:12;8.90;99.90
13409;DHT22;6775;49.574;11.170;2023-04-25T06:52:40;8.90;99.90
13409;DHT22;6775;49.574;11.170;2023-04-25T06:55:09;8.90;99.90
13409;DHT22;6775;49.574;11.170;2023-04-25T06:57:36;8.90;99.90
13409;DHT22;6775;49.574;11.170;2023-04-25T07:00:06;8.90;99.90
13409;DHT22;6775;49.574;11.170;2023-04-25T07:02:35;9.00;99.90
13409;DHT22;6775;49.574;11.170;2023-04-25T07:05:04;9.10;99.90
13409;DHT22;6775;49.574;11.170;2023-04-25T07:07:33;9.10;99.90
13409;DHT22;6775;49.574;11.170;2023-04-25T07:10:01;9.20;99.90
13409;DHT22;6775;49.574;11.170;2023-04-25T07:12:29;9.30;99.90
13409;DHT22;6775;49.574;11.170;2023-04-25T07:14:57;9.40;99.90
13409;DHT22;6775;49.574;11.170;2023-04-25T07:17:25;9.50;99.90
13409;DHT22;6775;49.574;11.170;2023-04-25T07:19:52;9.50;99.90
13409;DHT22;6775;49.574;11.170;2023-04-25T07:22:20;9.50;99.90
13409;DHT22;6775;49.574;11.170;2023-04-25T07:24:49;9.40;99.90
13409;DHT22;6775;49.574;11.170;2023-04-25T07:27:19;9.30;99.90
13409;DHT22;6775;49.574;11.170;2023-04-25T07:29:47;9.10;99.90
13409;DHT22;6775;49.574;11.170;2023-04-25T07:32:15;9.00;99.90
13409;DHT22;6775;49.574;11.170;2023-04-25T07:34:43;8.80;99.90
13409;DHT22;6775;49.574;11.170;2023-04-25T07:37:11;8.70;99.90
13409;DHT22;6775;49.574;11.170;2023-04-25T07:39:38;8.60;99.90
13409;DHT22;6775;49.574;11.170;2023-04-25T07:42:07;8.60;99.90
13409;DHT22;6775;49.574;11.170;2023-04-25T07:44:35;8.60;99.90
13409;DHT22;6775;49.574;11.170;2023-04-25T07:47:05;8.60;99.90
13409;DHT22;6775;49.574;11.170;2023-04-25T07:49:34;8.60;99.90
13409;DHT22;6775;49.574;11.170;2023-04-25T07:52:03;8.60;99.90
13409;DHT22;6775;49.574;11.170;2023-04-25T07:54:32;8.60;99.90
13409;DHT22;6775;49.574;11.170;2023-04-25T07:57:00;8.70;99.90
13409;DHT22;6775;49.574;11.170;2023-04-25T07:59:30;8.70;99.90
13409;DHT22;6775;49.574;11.170;2023-04-25T08:01:58;8.70;99.90
13409;DHT22;6775;49.574;11.170;2023-04-25T08:04:26;8.80;99.90
13409;DHT22;6775;49.574;11.170;2023-04-25T08:06:54;8.80;99.90
13409;DHT22;6775;49.574;11.170;2023-04-25T08:09:22;8.90;99.90
13409;DHT22;6775;49.574;11.170;2023-04-25T08:11:50;9.10;99.90
13409;DHT22;6775;49.574;11.170;2023-04-25T08:14:18;9.20;99.90
13409;DHT22;6775;49.574;11.170;2023-04-25T08:16:47;9.40;99.90
13409;DHT22;6775;49.574;11.170;2023-04-25T08:19:15;9.40;99.90
13409;DHT22;6775;49.574;11.170;2023-04-25T08:21:43;9.50;99.90
13409;DHT22;6775;49.574;11.170;2023-04-25T08:24:11;9.50;99.90
13409;DHT22;6775;49.574;11.170;2023-04-25T08:26:38;9.50;99.90
13409;DHT22;6775;49.574;11.170;2023-04-25T08:29:07;9.50;99.90
13409;DHT22;6775;49.574;11.170;2023-04-25T08:31:35;9.70;99.90
13409;DHT22;6775;49.574;11.170;2023-04-25T08:34:04;9.80;99.90
13409;DHT22;6775;49.574;11.170;2023-04-25T08:36:32;10.00;99.90
13409;DHT22;6775;49.574;11.170;2023-04-25T08:39:05;10.10;99.90
13409;DHT22;6775;49.574;11.170;2023-04-25T08:41:34;10.30;99.90
13409;DHT22;6775;49.574;11.170;2023-04-25T08:44:03;10.50;99.90
13409;DHT22;6775;49.574;11.170;2023-04-25T08:46:32;10.70;99.90
13409;DHT22;6775;49.574;11.170;2023-04-25T08:49:01;10.80;99.90
13409;DHT22;6775;49.574;11.170;2023-04-25T08:51:32;10.90;99.90
13409;DHT22;6775;49.574;11.170;2023-04-25T08:54:08;11.00;99.90
13409;DHT22;6775;49.574;11.170;2023-04-25T08:56:57;11.10;99.90
13409;DHT22;6775;49.574;11.170;2023-04-25T08:59:26;11.10;99.90
13409;DHT22;6775;49.574;11.170;2023-04-25T09:01:55;11.20;99.90
13409;DHT22;6775;49.574;11.170;2023-04-25T09:04:22;11.40;99.90
13409;DHT22;6775;49.574;11.170;2023-04-25T09:06:52;11.70;99.90
13409;DHT22;6775;49.574;11.170;2023-04-25T09:09:20;11.90;99.90
13409;DHT22;6775;49.574;11.170;2023-04-25T09:11:48;12.30;99.90
13409;DHT22;6775;49.574;11.170;2023-04-25T09:14:17;12.80;99.90
13409;DHT22;6775;49.574;11.170;2023-04-25T09:17:00;13.20;99.90
13409;DHT22;6775;49.574;11.170;2023-04-25T09:19:30;13.20;99.90
13409;DHT22;6775;49.574;11.170;2023-04-25T09:22:08;13.00;99.90
13409;DHT22;6775;49.574;11.170;2023-04-25T09:24:37;12.80;99.90
13409;DHT22;6775;49.574;11.170;2023-04-25T09:27:05;12.70;99.90
13409;DHT22;6775;49.574;11.170;2023-04-25T09:29:35;12.50;99.90
13409;DHT22;6775;49.574;11.170;2023-04-25T09:32:15;12.30;99.90
13409;DHT22;6775;49.574;11.170;2023-04-25T09:34:45;12.00;99.90
13409;DHT22;6775;49.574;11.170;2023-04-25T09:37:18;11.90;99.90
13409;DHT22;6775;49.574;11.170;2023-04-25T09:39:47;11.80;99.90
13409;DHT22;6775;49.574;11.170;2023-04-25T09:42:16;11.90;99.90
13409;DHT22;6775;49.574;11.170;2023-04-25T09:44:44;12.20;99.90
13409;DHT22;6775;49.574;11.170;2023-04-25T09:47:14;12.60;99.90
13409;DHT22;6775;49.574;11.170;2023-04-25T09:49:43;12.90;99.90
13409;DHT22;6775;49.574;11.170;2023-04-25T09:52:14;13.00;99.90
13409;DHT22;6775;49.574;11.170;2023-04-25T09:54:44;13.20;99.90
13409;DHT22;6775;49.574;11.170;2023-04-25T09:57:13;13.20;99.90
13409;DHT22;6775;49.574;11.170;2023-04-25T09:59:44;13.20;99.90
13409;DHT22;6775;49.574;11.170;2023-04-25T10:02:14;13.30;99.90
13409;DHT22;6775;49.574;11.170;2023-04-25T10:04:45;13.40;99.90
13409;DHT22;6775;49.574;11.170;2023-04-25T10:07:15;13.40;99.90
13409;DHT22;6775;49.574;11.170;2023-04-25T10:09:48;13.20;99.90
13409;DHT22;6775;49.574;11.170;2023-04-25T10:12:17;13.00;99.90
13409;DHT22;6775;49.574;11.170;2023-04-25T10:14:45;13.00;99.90
13409;DHT22;6775;49.574;11.170;2023-04-25T10:17:14;13.40;99.90
13409;DHT22;6775;49.574;11.170;2023-04-25T10:19:42;13.50;99.90
13409;DHT22;6775;49.574;11.170;2023-04-25T10:22:14;13.40;99.90
13409;DHT22;6775;49.574;11.170;2023-04-25T10:24:46;13.10;99.90
13409;DHT22;6775;49.574;11.170;2023-04-25T10:27:14;12.70;99.90
13409;DHT22;6775;49.574;11.170;2023-04-25T10:29:42;12.50;99.90
13409;DHT22;6775;49.574;11.170;2023-04-25T10:32:10;12.80;99.90
13409;DHT22;6775;49.574;11.170;2023-04-25T10:34:40;13.10;99.90
13409;DHT22;6775;49.574;11.170;2023-04-25T10:37:11;13.40;99.90
13409;DHT22;6775;49.574;11.170;2023-04-25T10:39:40;13.50;99.90
13409;DHT22;6775;49.574;11.170;2023-04-25T10:42:10;13.50;99.90
13409;DHT22;6775;49.574;11.170;2023-04-25T10:44:38;13.40;99.60
13409;DHT22;6775;49.574;11.170;2023-04-25T10:47:07;13.20;99.40
13409;DHT22;6775;49.574;11.170;2023-04-25T10:49:37;12.90;99.90
13409;DHT22;6775;49.574;11.170;2023-04-25T10:52:24;12.60;99.90
13409;DHT22;6775;49.574;11.170;2023-04-25T10:54:53;12.30;99.90
13409;DHT22;6775;49.574;11.170;2023-04-25T10:57:30;12.10;99.90
13409;DHT22;6775;49.574;11.170;2023-04-25T11:00:00;11.90;99.90
13409;DHT22;6775;49.574;11.170;2023-04-25T11:02:36;11.90;99.90
13409;DHT22;6775;49.574;11.170;2023-04-25T11:05:06;12.00;99.90
13409;DHT22;6775;49.574;11.170;2023-04-25T11:07:38;12.30;99.90
13409;DHT22;6775;49.574;11.170;2023-04-25T11:10:07;12.50;99.90
13409;DHT22;6775;49.574;11.170;2023-04-25T11:12:36;12.70;99.90
13409;DHT22;6775;49.574;11.170;2023-04-25T11:15:05;12.80;99.90
13409;DHT22;6775;49.574;11.170;2023-04-25T11:17:34;12.80;99.90
13409;DHT22;6775;49.574;11.170;2023-04-25T11:20:03;12.80;99.90
13409;DHT22;6775;49.574;11.170;2023-04-25T11:22:35;12.80;99.90
13409;DHT22;6775;49.574;11.170;2023-04-25T11:25:07;12.80;99.90
13409;DHT22;6775;49.574;11.170;2023-04-25T11:27:42;12.80;99.90
13409;DHT22;6775;49.574;11.170;2023-04-25T11:30:17;12.90;99.90
13409;DHT22;6775;49.574;11.170;2023-04-25T11:32:45;12.90;99.90
13409;DHT22;6775;49.574;11.170;2023-04-25T11:35:13;12.80;99.90
13409;DHT22;6775;49.574;11.170;2023-04-25T11:37:42;12.60;99.90
13409;DHT22;6775;49.574;11.170;2023-04-25T11:40:11;12.50;99.60
13409;DHT22;6775;49.574;11.170;2023-04-25T11:42:44;12.60;99.90
13409;DHT22;6775;49.574;11.170;2023-04-25T11:45:13;12.70;99.90
13409;DHT22;6775;49.574;11.170;2023-04-25T11:47:42;12.70;99.90
13409;DHT22;6775;49.574;11.170;2023-04-25T11:50:10;12.80;99.90
13409;DHT22;6775;49.574;11.170;2023-04-25T11:52:39;12.90;99.10
13409;DHT22;6775;49.574;11.170;2023-04-25T11:55:08;13.10;99.20
13409;DHT22;6775;49.574;11.170;2023-04-25T11:57:39;13.40;97.90
13409;DHT22;6775;49.574;11.170;2023-04-25T12:00:12;13.50;97.60
13409;DHT22;6775;49.574;11.170;2023-04-25T12:02:45;13.50;97.30
13409;DHT22;6775;49.574;11.170;2023-04-25T12:05:14;13.40;97.30
13409;DHT22;6775;49.574;11.170;2023-04-25T12:07:58;13.40;97.10
13409;DHT22;6775;49.574;11.170;2023-04-25T12:10:26;13.30;96.50
13409;DHT22;6775;49.574;11.170;2023-04-25T12:12:55;13.30;96.60
13409;DHT22;6775;49.574;11.170;2023-04-25T12:15:24;13.20;96.10
13409;DHT22;6775;49.574;11.170;2023-04-25T12:17:53;13.20;95.80
13409;DHT22;6775;49.574;11.170;2023-04-25T12:20:24;13.20;96.00
13409;DHT22;6775;49.574;11.170;2023-04-25T12:22:52;13.20;96.30
13409;DHT22;6775;49.574;11.170;2023-04-25T12:25:37;13.30;96.50
13409;DHT22;6775;49.574;11.170;2023-04-25T12:28:18;13.40;96.50
13409;DHT22;6775;49.574;11.170;2023-04-25T12:30:57;13.50;96.60
13409;DHT22;6775;49.574;11.170;2023-04-25T12:33:26;13.70;96.50
13409;DHT22;6775;49.574;11.170;2023-04-25T12:35:54;13.70;95.30
13409;DHT22;6775;49.574;11.170;2023-04-25T12:38:23;13.60;95.30
13409;DHT22;6775;49.574;11.170;2023-04-25T12:40:52;13.30;94.80
13409;DHT22;6775;49.574;11.170;2023-04-25T12:43:21;13.00;94.90
13409;DHT22;6775;49.574;11.170;2023-04-25T12:45:49;12.70;95.40
13409;DHT22;6775;49.574;11.170;2023-04-25T12:48:18;12.50;97.40
13409;DHT22;6775;49.574;11.170;2023-04-25T12:50:46;12.40;96.90
13409;DHT22;6775;49.574;11.170;2023-04-25T12:53:15;12.30;97.00
13409;DHT22;6775;49.574;11.170;2023-04-25T12:55:43;12.10;96.70
13409;DHT22;6775;49.574;11.170;2023-04-25T12:58:12;12.00;97.40
13409;DHT22;6775;49.574;11.170;2023-04-25T13:00:41;11.90;97.80
13409;DHT22;6775;49.574;11.170;2023-04-25T13:03:10;11.90;98.50
13409;DHT22;6775;49.574;11.170;2023-04-25T13:05:41;11.80;98.90
13409;DHT22;6775;49.574;11.170;2023-04-25T13:08:09;11.80;98.90
13409;DHT22;6775;49.574;11.170;2023-04-25T13:10:37;11.80;98.80
13409;DHT22;6775;49.574;11.170;2023-04-25T13:13:05;11.90;99.20
13409;DHT22;6775;49.574;11.170;2023-04-25T13:15:33;11.90;98.60
13409;DHT22;6775;49.574;11.170;2023-04-25T13:18:03;12.00;98.80
13409;DHT22;6775;49.574;11.170;2023-04-25T13:20:32;12.00;98.80
13409;DHT22;6775;49.574;11.170;2023-04-25T13:23:00;12.10;98.20
13409;DHT22;6775;49.574;11.170;2023-04-25T13:25:28;12.20;98.20
13409;DHT22;6775;49.574;11.170;2023-04-25T13:27:56;12.30;98.40
13409;DHT22;6775;49.574;11.170;2023-04-25T13:30:24;12.30;98.00
13409;DHT22;6775;49.574;11.170;2023-04-25T13:32:53;12.20;98.50
13409;DHT22;6775;49.574;11.170;2023-04-25T13:35:24;12.10;98.00
13409;DHT22;6775;49.574;11.170;2023-04-25T13:37:52;11.90;98.20
13409;DHT22;6775;49.574;11.170;2023-04-25T13:40:20;11.80;98.60
13409;DHT22;6775;49.574;11.170;2023-04-25T13:42:50;11.80;99.10
13409;DHT22;6775;49.574;11.170;2023-04-25T13:45:19;11.80;99.60
13409;DHT22;6775;49.574;11.170;2023-04-25T13:47:46;11.80;99.40
13409;DHT22;6775;49.574;11.170;2023-04-25T13:50:14;11.80;99.30
13409;DHT22;6775;49.574;11.170;2023-04-25T13:52:44;11.70;99.00
13409;DHT22;6775;49.574;11.170;2023-04-25T13:55:11;11.60;99.00
13409;DHT22;6775;49.574;11.170;2023-04-25T13:57:39;11.60;99.60
13409;DHT22;6775;49.574;11.170;2023-04-25T14:00:08;11.60;99.90
13409;DHT22;6775;49.574;11.170;2023-04-25T14:02:36;11.70;99.90
13409;DHT22;6775;49.574;11.170;2023-04-25T14:05:04;11.80;99.90
13409;DHT22;6775;49.574;11.170;2023-04-25T14:07:33;11.90;99.20
13409;DHT22;6775;49.574;11.170;2023-04-25T14:10:04;11.90;98.70
13409;DHT22;6775;49.574;11.170;2023-04-25T14:12:32;11.90;98.70
13409;DHT22;6775;49.574;11.170;2023-04-25T14:15:00;11.90;98.50
13409;DHT22;6775;49.574;11.170;2023-04-25T14:17:28;11.80;98.70
13409;DHT22;6775;49.574;11.170;2023-04-25T14:19:56;11.70;98.60
13409;DHT22;6775;49.574;11.170;2023-04-25T14:22:24;11.50;98.70
13409;DHT22;6775;49.574;11.170;2023-04-25T14:24:52;11.30;99.10
13409;DHT22;6775;49.574;11.170;2023-04-25T14:27:21;11.00;99.50
13409;DHT22;6775;49.574;11.170;2023-04-25T14:29:49;10.80;99.90
13409;DHT22;6775;49.574;11.170;2023-04-25T14:32:17;10.70;99.90
13409;DHT22;6775;49.574;11.170;2023-04-25T14:34:44;10.50;99.90
13409;DHT22;6775;49.574;11.170;2023-04-25T14:37:12;10.40;99.90
13409;DHT22;6775;49.574;11.170;2023-04-25T14:39:40;10.40;99.90
13409;DHT22;6775;49.574;11.170;2023-04-25T14:42:10;10.40;99.90
13409;DHT22;6775;49.574;11.170;2023-04-25T14:44:39;10.50;99.90
13409;DHT22;6775;49.574;11.170;2023-04-25T14:47:07;10.50;99.90
13409;DHT22;6775;49.574;11.170;2023-04-25T14:49:35;10.60;99.90
13409;DHT22;6775;49.574;11.170;2023-04-25T14:52:03;10.70;99.90
13409;DHT22;6775;49.574;11.170;2023-04-25T14:54:31;10.70;99.90
13409;DHT22;6775;49.574;11.170;2023-04-25T14:56:59;10.70;99.90
13409;DHT22;6775;49.574;11.170;2023-04-25T14:59:27;10.70;99.90
13409;DHT22;6775;49.574;11.170;2023-04-25T15:01:56;10.60;99.90
13409;DHT22;6775;49.574;11.170;2023-04-25T15:04:25;10.60;99.90
13409;DHT22;6775;49.574;11.170;2023-04-25T15:06:54;10.60;99.90
13409;DHT22;6775;49.574;11.170;2023-04-25T15:09:22;10.60;99.90
13409;DHT22;6775;49.574;11.170;2023-04-25T15:11:50;10.60;99.90
13409;DHT22;6775;49.574;11.170;2023-04-25T15:14:18;10.60;99.90
13409;DHT22;6775;49.574;11.170;2023-04-25T15:16:46;10.70;99.90
13409;DHT22;6775;49.574;11.170;2023-04-25T15:19:15;10.80;99.90
13409;DHT22;6775;49.574;11.170;2023-04-25T15:21:43;10.80;99.90
13409;DHT22;6775;49.574;11.170;2023-04-25T15:24:11;10.80;99.90
13409;DHT22;6775;49.574;11.170;2023-04-25T15:26:41;10.80;99.90
13409;DHT22;6775;49.574;11.170;2023-04-25T15:29:08;10.80;99.90
13409;DHT22;6775;49.574;11.170;2023-04-25T15:31:37;10.80;99.90
13409;DHT22;6775;49.574;11.170;2023-04-25T15:34:04;10.90;99.90
13409;DHT22;6775;49.574;11.170;2023-04-25T15:36:34;10.90;99.90
13409;DHT22;6775;49.574;11.170;2023-04-25T15:39:02;11.00;99.90
13409;DHT22;6775;49.574;11.170;2023-04-25T15:41:30;11.10;99.90
13409;DHT22;6775;49.574;11.170;2023-04-25T15:43:59;11.10;99.90
13409;DHT22;6775;49.574;11.170;2023-04-25T15:46:28;11.00;99.90
13409;DHT22;6775;49.574;11.170;2023-04-25T15:48:56;10.90;99.90
13409;DHT22;6775;49.574;11.170;2023-04-25T15:51:24;10.70;99.90